SCUZ weather

Aerosanta Cruz Airport
Santa Cruz, O'Higgins Region, Chile

Public forecast

Using degrees Celsius for public forecast. Weather courtesy of forecast.io.

METAR (pilot weather report)

Closest report is General Freire Airport, 20.8 nm (38.6 km) SSE. Retrieved 2019/04/19 22:00 UTC (22 minutes ago):

SCIC 192200Z 07004KT 7000 OVC020 15/11 Q1016

TAF (pilot weather forecast)

Closest forecast is Comodoro Arturo Merino Benítez International Airport, 81.1 nm (150.2 km) NNE. Retrieved 2019/04/19 18:00 UTC (4 hours ago):

TAF SCEL 191600Z 1918/2018 17012KT 8000 NSC TX20/1918Z TN10/2011Z BECMG 2005/2007 15004KT 4000 BR TEMPO 2008/2013 VRB02KT 0700 BCFG BKN004 BKN010 BECMG 2015/2017 18008KT 8000 SCT010